Time;durP1;ratioP1;P1;durP2;ratioP2;P2;SDS_P1;SDS_P2;PMS_P1;PMS_P2;Temp;Humidity;BMP_temperature;BMP_pressure;BME280_temperature;BME280_humidity;BME280_pressure;Samples;Min_cycle;Max_cycle;Signal;HPM_P1;HPM_P2
2021/08/02 00:02:37;;;;;;;4.95;2.40;;;16.50;95.30;;;;;;4997710;28;20025;-90
2021/08/02 00:05:06;;;;;;;4.22;2.10;;;16.50;95.40;;;;;;4979766;28;20036;-90
2021/08/02 00:07:35;;;;;;;5.97;2.60;;;16.50;95.50;;;;;;4995644;28;20022;-90
2021/08/02 00:10:13;;;;;;;3.92;2.40;;;16.50;95.40;;;;;;4995851;28;20057;-90
2021/08/02 00:12:50;;;;;;;3.80;2.33;;;16.40;95.30;;;;;;4995804;28;20479;-90
2021/08/02 00:15:18;;;;;;;4.63;2.10;;;16.40;95.50;;;;;;4995811;28;20022;-90
2021/08/02 00:17:46;;;;;;;5.03;2.60;;;16.40;95.50;;;;;;4995510;28;20030;-91
2021/08/02 00:20:14;;;;;;;5.03;2.70;;;16.40;95.80;;;;;;4990630;28;20121;-90
2021/08/02 00:22:40;;;;;;;4.75;2.28;;;16.40;95.70;;;;;;4997969;28;20117;-90
2021/08/02 00:25:07;;;;;;;4.10;2.08;;;16.40;95.60;;;;;;4975908;28;20053;-90
2021/08/02 00:27:33;;;;;;;6.30;2.30;;;16.40;95.70;;;;;;4995592;28;20487;-90
2021/08/02 00:30:00;;;;;;;4.82;2.30;;;16.40;95.60;;;;;;4963787;28;20029;-91
2021/08/02 00:32:25;;;;;;;7.45;2.60;;;16.40;95.70;;;;;;4979424;28;20443;-90
2021/08/02 00:38:38;;;;;;;6.85;2.80;;;16.40;95.30;;;;;;5015925;28;20052;-91
2021/08/02 00:41:19;;;;;;;4.82;2.22;;;16.40;95.60;;;;;;4999561;28;20026;-91
2021/08/02 00:44:00;;;;;;;;;;;16.40;95.40;;;;;;4999841;28;20041;-91
2021/08/02 00:46:34;;;;;;;4.72;2.42;;;16.30;95.40;;;;;;5017142;28;19905;-90
2021/08/02 00:49:06;;;;;;;6.38;2.67;;;16.30;95.90;;;;;;5000033;28;20468;-90
2021/08/02 00:51:45;;;;;;;7.05;2.97;;;16.30;95.90;;;;;;4999755;28;20054;-90
2021/08/02 00:54:13;;;;;;;7.53;2.97;;;16.30;95.80;;;;;;5017191;28;20027;-91
2021/08/02 00:56:40;;;;;;;5.40;2.30;;;16.30;95.90;;;;;;4984815;28;20472;-90
2021/08/02 00:59:07;;;;;;;4.57;2.15;;;16.30;95.80;;;;;;4999831;28;20022;-90
2021/08/02 01:01:35;;;;;;;7.57;2.88;;;16.30;95.90;;;;;;4967189;28;20032;-90
2021/08/02 01:04:02;;;;;;;4.78;2.40;;;16.20;95.80;;;;;;5000274;28;20022;-90
2021/08/02 01:06:32;;;;;;;5.20;2.45;;;16.30;95.90;;;;;;4984300;28;20036;-90
2021/08/02 01:09:04;;;;;;;4.55;2.20;;;16.30;95.80;;;;;;4999322;28;20047;-89
2021/08/02 01:11:32;;;;;;;4.65;2.22;;;16.20;95.80;;;;;;4998880;28;20446;-91
2021/08/02 01:14:02;;;;;;;7.80;2.22;;;16.20;95.70;;;;;;4982509;28;20022;-90
2021/08/02 01:16:29;;;;;;;4.60;2.30;;;16.20;95.90;;;;;;4982925;28;20095;-91
2021/08/02 01:18:57;;;;;;;5.43;2.70;;;16.20;95.80;;;;;;4998995;28;20044;-90
2021/08/02 01:21:23;;;;;;;5.03;2.75;;;16.20;96.00;;;;;;4990138;28;20042;-90
2021/08/02 01:23:59;;;;;;;4.57;2.40;;;16.20;95.90;;;;;;4977132;28;20030;-89
2021/08/02 01:26:42;;;;;;;6.60;2.65;;;16.10;95.70;;;;;;4966318;28;20022;-90
2021/08/02 01:29:46;;;;;;;7.18;2.85;;;16.10;95.60;;;;;;4982766;28;20117;-90
2021/08/02 01:32:16;;;;;;;5.65;2.63;;;16.00;95.70;;;;;;4978937;28;20026;-90
2021/08/02 01:34:43;;;;;;;4.90;2.83;;;16.10;96.20;;;;;;4976961;28;20105;-90
2021/08/02 01:37:09;;;;;;;7.35;2.88;;;16.00;96.30;;;;;;4943626;28;20035;-89
2021/08/02 01:39:36;;;;;;;7.35;2.90;;;16.10;96.50;;;;;;4981542;28;20105;-90
2021/08/02 01:42:03;;;;;;;6.03;3.38;;;16.10;96.50;;;;;;4981983;28;20030;-89
2021/08/02 01:44:28;;;;;;;6.50;3.15;;;16.10;96.40;;;;;;4982031;28;20018;-89
2021/08/02 01:47:04;;;;;;;7.68;3.30;;;16.10;96.60;;;;;;4962614;28;20057;-90
2021/08/02 01:49:46;;;;;;;6.95;3.20;;;16.10;96.50;;;;;;4979224;28;20030;-90
2021/08/02 01:52:18;;;;;;;9.23;3.47;;;16.10;96.30;;;;;;4989277;28;20029;-90
2021/08/02 01:55:09;;;;;;;4.40;2.92;;;16.10;96.50;;;;;;4976894;28;20031;-89
2021/08/02 01:57:43;;;;;;;8.70;3.00;;;16.10;96.10;;;;;;4978404;28;20032;-90
2021/08/02 02:00:13;;;;;;;4.78;3.22;;;16.10;96.50;;;;;;4981713;28;20030;-90
2021/08/02 02:02:42;;;;;;;7.70;3.15;;;16.10;96.50;;;;;;4978291;28;20021;-90
2021/08/02 02:05:18;;;;;;;5.97;3.58;;;16.10;96.50;;;;;;4983752;28;20018;-90
2021/08/02 02:07:55;;;;;;;8.70;3.65;;;16.10;96.50;;;;;;4984999;28;20038;-90
2021/08/02 02:10:24;;;;;;;5.75;3.13;;;16.10;96.60;;;;;;4978117;28;20049;-90
2021/08/02 02:12:52;;;;;;;6.55;3.28;;;16.10;96.70;;;;;;4990604;28;20120;-90
2021/08/02 02:15:17;;;;;;;9.60;3.65;;;16.10;96.70;;;;;;4959817;28;20050;-90
2021/08/02 02:18:02;;;;;;;6.82;3.42;;;16.10;96.50;;;;;;4956693;28;20065;-89
2021/08/02 02:20:32;;;;;;;6.00;3.30;;;16.10;96.10;;;;;;4981469;28;20128;-90
2021/08/02 02:22:58;;;;;;;7.78;3.63;;;16.10;96.60;;;;;;4997503;28;20087;-89
2021/08/02 02:25:24;;;;;;;6.30;3.53;;;16.00;96.80;;;;;;4980768;28;20486;-90
2021/08/02 02:27:50;;;;;;;7.30;3.83;;;16.00;96.70;;;;;;4981033;28;20038;-89
2021/08/02 02:30:15;;;;;;;8.40;3.80;;;16.00;96.70;;;;;;4997208;28;20060;-90
2021/08/02 02:32:43;;;;;;;9.02;3.92;;;16.00;96.70;;;;;;4981222;28;20030;-89
2021/08/02 02:35:10;;;;;;;6.82;3.70;;;16.00;96.70;;;;;;4980921;28;20121;-88
2021/08/02 02:37:36;;;;;;;6.47;3.97;;;16.00;96.80;;;;;;4980933;28;20060;-89
2021/08/02 02:40:04;;;;;;;8.07;3.47;;;16.00;96.80;;;;;;4980878;28;20137;-89
2021/08/02 02:42:31;;;;;;;8.05;4.13;;;16.00;96.80;;;;;;4996777;28;20109;-87
2021/08/02 02:44:58;;;;;;;10.80;4.60;;;16.00;96.80;;;;;;4981091;28;20084;-87
2021/08/02 02:47:25;;;;;;;6.78;3.78;;;16.00;96.70;;;;;;4980936;28;20439;-89
2021/08/02 02:49:53;;;;;;;7.90;3.88;;;16.00;96.90;;;;;;4996986;28;20025;-89
2021/08/02 02:52:20;;;;;;;8.25;3.75;;;16.00;96.70;;;;;;4996907;28;20030;-89
2021/08/02 02:54:50;;;;;;;8.60;4.03;;;16.00;96.80;;;;;;4977356;28;20125;-89
2021/08/02 02:57:16;;;;;;;8.00;3.22;;;16.00;96.80;;;;;;5008080;28;20022;-89
2021/08/02 03:03:06;;;;;;;9.27;3.90;;;16.00;96.70;;;;;;5012969;28;20430;-88
2021/08/02 03:05:35;;;;;;;7.18;3.65;;;16.00;96.80;;;;;;4980524;28;20014;-89
2021/08/02 03:08:01;;;;;;;6.00;3.65;;;16.00;96.70;;;;;;4996287;28;20475;-89
2021/08/02 03:10:30;;;;;;;8.50;3.40;;;16.00;96.90;;;;;;4996259;28;20026;-90
2021/08/02 03:12:56;;;;;;;6.90;3.90;;;16.00;96.80;;;;;;4996303;28;20026;-89
2021/08/02 03:15:22;;;;;;;7.22;3.55;;;16.00;97.00;;;;;;4980418;28;20545;-89
2021/08/02 03:17:48;;;;;;;7.95;3.78;;;16.00;97.10;;;;;;4995303;28;20026;-90
2021/08/02 03:20:14;;;;;;;6.72;3.55;;;16.00;97.00;;;;;;4980225;28;20073;-90
2021/08/02 03:23:10;;;;;;;6.10;3.70;;;16.00;97.10;;;;;;4983244;28;20411;-89
2021/08/02 03:25:43;;;;;;;7.82;3.72;;;16.00;97.10;;;;;;4989207;28;20022;-90
2021/08/02 03:28:16;;;;;;;7.50;3.83;;;16.00;97.10;;;;;;4996555;28;20037;-89
2021/08/02 03:30:45;;;;;;;5.80;3.30;;;16.00;96.90;;;;;;4996269;28;20494;-90
2021/08/02 03:33:15;;;;;;;4.88;3.30;;;16.00;97.00;;;;;;4980616;28;20025;-89
2021/08/02 03:35:47;;;;;;;5.20;3.28;;;15.90;97.20;;;;;;4996106;28;20022;-89
2021/08/02 03:38:15;;;;;;;6.55;3.40;;;16.00;97.10;;;;;;4996348;28;20091;-89
2021/08/02 03:40:44;;;;;;;8.15;4.05;;;15.90;97.30;;;;;;5013959;28;20033;-89
2021/08/02 03:43:11;;;;;;;8.15;3.70;;;15.90;97.20;;;;;;4996170;28;20472;-89
2021/08/02 03:45:39;;;;;;;7.63;3.70;;;15.90;97.30;;;;;;4996610;28;20025;-87
2021/08/02 03:48:06;;;;;;;6.32;3.40;;;15.90;97.20;;;;;;4980535;28;20026;-89
2021/08/02 03:50:32;;;;;;;5.07;3.10;;;15.90;97.10;;;;;;4980278;28;20030;-89
2021/08/02 03:52:58;;;;;;;5.35;3.42;;;15.90;97.00;;;;;;4980174;28;20029;-89
2021/08/02 03:55:25;;;;;;;5.25;3.10;;;15.90;97.50;;;;;;4980197;28;20376;-90
2021/08/02 03:57:51;;;;;;;8.45;3.30;;;15.90;97.40;;;;;;4992637;28;20022;-89
2021/08/02 04:00:21;;;;;;;8.30;3.33;;;15.90;97.20;;;;;;4985522;28;20044;-90
2021/08/02 04:02:49;;;;;;;7.63;3.30;;;15.90;97.30;;;;;;4995671;28;20060;-90
2021/08/02 04:05:14;;;;;;;6.63;3.58;;;15.90;97.40;;;;;;4979859;28;20030;-89
2021/08/02 04:07:41;;;;;;;7.80;3.40;;;15.90;97.30;;;;;;4979621;28;20467;-89
2021/08/02 04:10:07;;;;;;;6.35;3.15;;;15.90;97.30;;;;;;4978852;28;20045;-90
2021/08/02 04:12:34;;;;;;;5.90;3.20;;;15.90;97.20;;;;;;4967615;28;20030;-89
2021/08/02 04:14:59;;;;;;;8.02;3.70;;;15.90;97.40;;;;;;4993883;28;20034;-90
2021/08/02 04:17:25;;;;;;;17.92;4.28;;;15.90;97.40;;;;;;4995379;28;20041;-87
2021/08/02 04:22:24;;;;;;;6.97;3.15;;;15.90;97.50;;;;;;4993028;28;20116;-89
2021/08/02 04:24:50;;;;;;;5.78;2.97;;;15.90;97.50;;;;;;4944444;28;20030;-90
2021/08/02 04:27:15;;;;;;;5.75;3.40;;;15.90;97.60;;;;;;4944189;28;20471;-89
2021/08/02 04:29:41;;;;;;;7.63;3.58;;;15.90;97.50;;;;;;4960026;28;20041;-89
2021/08/02 04:35:29;;;;;;;7.00;3.42;;;15.90;97.30;;;;;;4990987;28;20085;-89
2021/08/02 04:37:54;;;;;;;4.78;2.90;;;15.90;97.40;;;;;;4959753;28;20030;-89
2021/08/02 04:40:20;;;;;;;5.25;3.03;;;15.90;97.50;;;;;;4959872;28;20037;-90
2021/08/02 04:42:45;;;;;;;6.60;3.15;;;15.90;97.70;;;;;;4959502;28;20022;-86
2021/08/02 04:45:12;;;;;;;6.72;2.80;;;15.80;97.30;;;;;;4959616;28;20036;-87
2021/08/02 04:47:38;;;;;;;6.05;2.95;;;15.80;97.30;;;;;;4943759;28;20476;-86
2021/08/02 04:50:04;;;;;;;5.20;2.97;;;15.80;97.50;;;;;;4956867;28;20491;-87
2021/08/02 04:52:30;;;;;;;7.65;2.92;;;15.80;97.40;;;;;;4968056;28;20041;-87
2021/08/02 04:54:56;;;;;;;5.53;3.10;;;15.80;97.70;;;;;;4940677;28;20436;-87
2021/08/02 04:57:22;;;;;;;5.75;3.10;;;15.80;97.50;;;;;;4955812;28;20396;-87
2021/08/02 04:59:48;;;;;;;8.40;3.03;;;15.80;97.40;;;;;;4959414;28;20018;-87
2021/08/02 05:02:13;;;;;;;4.90;2.80;;;15.80;97.40;;;;;;4959644;28;20037;-89
2021/08/02 05:04:39;;;;;;;7.03;2.95;;;15.80;97.40;;;;;;4970754;28;20026;-89
2021/08/02 05:07:05;;;;;;;5.35;2.72;;;15.80;97.60;;;;;;4960529;28;20027;-89
2021/08/02 05:09:30;;;;;;;5.70;2.65;;;15.80;97.40;;;;;;4953605;28;20030;-89
2021/08/02 05:11:56;;;;;;;8.15;2.78;;;15.80;97.40;;;;;;4959327;28;20046;-90
2021/08/02 05:14:22;;;;;;;5.30;2.90;;;15.80;97.50;;;;;;4975977;28;20038;-89
2021/08/02 05:16:47;;;;;;;5.55;2.90;;;15.80;97.40;;;;;;4959571;28;20030;-89
2021/08/02 05:19:13;;;;;;;5.53;2.75;;;15.80;97.50;;;;;;4959719;28;20045;-89
2021/08/02 05:21:39;;;;;;;6.78;3.10;;;15.80;97.50;;;;;;4960492;28;20054;-90
2021/08/02 05:24:05;;;;;;;7.68;2.80;;;15.80;97.50;;;;;;4943578;28;20023;-89
2021/08/02 05:26:31;;;;;;;6.00;3.00;;;15.80;97.60;;;;;;4972671;28;20030;-90
2021/08/02 05:28:58;;;;;;;6.43;2.72;;;15.80;97.50;;;;;;4963016;28;20022;-90
2021/08/02 05:31:24;;;;;;;6.00;3.05;;;15.80;97.50;;;;;;4978932;28;20033;-90
2021/08/02 05:33:50;;;;;;;6.22;3.08;;;15.80;97.40;;;;;;4979742;28;20105;-90
2021/08/02 05:36:34;;;;;;;6.45;2.90;;;15.80;97.60;;;;;;4966413;28;20455;-90
2021/08/02 05:39:00;;;;;;;5.95;2.75;;;15.80;97.30;;;;;;4962901;28;20023;-89
2021/08/02 05:41:25;;;;;;;6.00;2.72;;;15.80;97.50;;;;;;4979422;28;20030;-90
2021/08/02 05:43:51;;;;;;;6.03;3.30;;;15.80;97.50;;;;;;4963504;28;20038;-90
2021/08/02 05:46:16;;;;;;;6.28;2.92;;;15.80;97.40;;;;;;4964447;28;20034;-90
2021/08/02 05:48:43;;;;;;;5.90;2.90;;;15.80;97.50;;;;;;4957555;28;20484;-89
2021/08/02 05:51:09;;;;;;;6.18;3.00;;;15.80;97.60;;;;;;4946903;28;20113;-90
2021/08/02 05:53:35;;;;;;;7.45;3.00;;;15.80;97.60;;;;;;4962570;28;20131;-89
2021/08/02 05:56:00;;;;;;;7.00;3.13;;;15.90;97.90;;;;;;4948865;28;20039;-90
2021/08/02 05:58:26;;;;;;;5.95;3.13;;;15.90;97.70;;;;;;4963195;28;20542;-90
2021/08/02 06:00:52;;;;;;;6.60;3.33;;;15.90;97.70;;;;;;4961144;28;20388;-91
2021/08/02 06:03:18;;;;;;;5.43;2.92;;;15.90;97.70;;;;;;4950150;28;20027;-90
2021/08/02 06:05:44;;;;;;;5.63;3.50;;;15.90;97.80;;;;;;4962416;28;20511;-89
2021/08/02 06:08:09;;;;;;;6.18;3.33;;;15.90;97.70;;;;;;4964809;28;20030;-90
2021/08/02 06:10:37;;;;;;;7.57;3.30;;;16.00;97.80;;;;;;4949923;28;20417;-89
2021/08/02 06:13:02;;;;;;;7.63;3.10;;;16.00;97.70;;;;;;4972815;28;20121;-90
2021/08/02 06:15:28;;;;;;;4.82;3.10;;;16.00;97.80;;;;;;4961838;28;20034;-90
2021/08/02 06:17:54;;;;;;;7.25;3.53;;;16.00;97.90;;;;;;4960596;28;20034;-90
2021/08/02 06:20:20;;;;;;;5.00;3.10;;;16.00;98.00;;;;;;4944165;28;20023;-89
2021/08/02 06:22:45;;;;;;;6.75;3.03;;;16.00;97.90;;;;;;4922151;28;20472;-90
2021/08/02 06:25:11;;;;;;;8.70;4.15;;;16.10;97.90;;;;;;4931701;28;20053;-89
2021/08/02 06:27:37;;;;;;;6.40;3.40;;;16.10;97.80;;;;;;4941608;28;20362;-89
2021/08/02 06:30:05;;;;;;;5.90;2.95;;;16.10;97.90;;;;;;4928883;28;20035;-89
2021/08/02 06:32:30;;;;;;;5.20;2.70;;;16.10;98.00;;;;;;4928793;28;20065;-88
2021/08/02 06:34:56;;;;;;;4.40;2.60;;;16.20;98.20;;;;;;4909388;28;20536;-88
2021/08/02 06:37:23;;;;;;;3.22;2.53;;;16.20;98.20;;;;;;4934589;28;20026;-88
2021/08/02 06:39:50;;;;;;;6.97;2.80;;;16.30;98.30;;;;;;4952607;28;20027;-89
2021/08/02 06:42:16;;;;;;;4.78;2.30;;;16.30;98.30;;;;;;4949572;28;20035;-89
2021/08/02 06:44:43;;;;;;;5.00;3.15;;;16.30;98.30;;;;;;4934900;28;20034;-89
2021/08/02 06:47:09;;;;;;;5.65;2.22;;;16.40;98.30;;;;;;4957889;28;20027;-89
2021/08/02 06:49:35;;;;;;;3.85;2.17;;;16.40;98.50;;;;;;4946008;29;20089;-89
2021/08/02 06:52:00;;;;;;;3.55;1.67;;;16.50;98.50;;;;;;4968903;28;20022;-89
2021/08/02 06:54:26;;;;;;;6.82;1.92;;;16.50;98.40;;;;;;4951622;28;20027;-89
2021/08/02 06:56:52;;;;;;;3.08;1.70;;;16.60;98.50;;;;;;4957436;28;20042;-89
2021/08/02 06:59:17;;;;;;;4.40;1.80;;;16.70;98.50;;;;;;4955893;28;20034;-88
2021/08/02 07:01:43;;;;;;;3.83;1.58;;;16.70;98.60;;;;;;4925967;28;20476;-90
2021/08/02 07:04:09;;;;;;;5.45;1.85;;;16.70;98.60;;;;;;4925878;28;20120;-89
2021/08/02 07:06:34;;;;;;;4.32;1.60;;;16.80;98.60;;;;;;4915544;29;20019;-89
2021/08/02 07:09:01;;;;;;;2.22;1.27;;;16.90;98.60;;;;;;4966278;28;20027;-89
2021/08/02 07:11:26;;;;;;;2.10;1.38;;;16.90;98.80;;;;;;4945042;28;20015;-89
2021/08/02 07:13:54;;;;;;;3.20;1.20;;;17.00;98.60;;;;;;4976549;28;20027;-89
2021/08/02 07:16:21;;;;;;;4.82;1.23;;;17.00;98.50;;;;;;4958578;28;20386;-88
2021/08/02 07:18:47;;;;;;;3.75;1.30;;;17.00;98.40;;;;;;4942706;28;20416;-90
2021/08/02 07:21:12;;;;;;;2.65;1.20;;;17.10;98.50;;;;;;4965338;28;20050;-90
2021/08/02 07:23:38;;;;;;;3.90;1.38;;;17.10;98.50;;;;;;4943630;28;20025;-91
2021/08/02 07:26:04;;;;;;;4.85;1.48;;;17.20;98.40;;;;;;4944503;28;20097;-89
2021/08/02 07:28:29;;;;;;;2.08;1.02;;;17.20;98.30;;;;;;4961593;28;20026;-89
2021/08/02 07:30:55;;;;;;;2.75;1.30;;;17.30;98.40;;;;;;4962169;28;20041;-90
2021/08/02 07:33:22;;;;;;;2.28;1.20;;;17.30;98.30;;;;;;4946175;28;20065;-89
2021/08/02 07:35:48;;;;;;;1.92;1.20;;;17.40;98.10;;;;;;4978262;28;20065;-89
2021/08/02 07:38:13;;;;;;;3.72;1.33;;;17.50;98.20;;;;;;4945649;28;20050;-89
2021/08/02 07:40:39;;;;;;;2.72;1.20;;;17.50;98.00;;;;;;4977937;28;20435;-90
2021/08/02 07:43:06;;;;;;;3.00;1.30;;;17.50;97.90;;;;;;4962122;28;20032;-90
2021/08/02 07:45:31;;;;;;;2.63;1.15;;;17.60;98.10;;;;;;4975249;28;20488;-90
2021/08/02 07:47:57;;;;;;;2.45;0.95;;;17.70;98.00;;;;;;4935097;28;20037;-90
2021/08/02 07:50:23;;;;;;;2.70;1.05;;;17.70;97.90;;;;;;4974204;28;20430;-89
2021/08/02 07:52:54;;;;;;;3.92;1.23;;;17.80;97.60;;;;;;4969311;28;20017;-89
2021/08/02 07:55:20;;;;;;;1.98;1.10;;;17.80;97.80;;;;;;4975458;28;20042;-89
2021/08/02 07:57:46;;;;;;;3.25;1.20;;;17.90;97.60;;;;;;4974819;28;20046;-88
2021/08/02 08:00:16;;;;;;;2.33;1.10;;;17.90;97.30;;;;;;4978310;28;20030;-88
2021/08/02 08:02:45;;;;;;;4.65;1.38;;;18.00;97.10;;;;;;4986069;28;20328;-88
2021/08/02 08:05:13;;;;;;;;;;;18.00;96.90;;;;;;4993128;28;20019;-90
2021/08/02 08:07:42;;;;;;;3.20;1.20;;;18.00;96.00;;;;;;4980353;28;19894;-90
2021/08/02 08:10:10;;;;;;;4.97;1.65;;;18.10;96.50;;;;;;5001773;28;20026;-90
2021/08/02 08:12:36;;;;;;;2.80;1.17;;;18.10;96.60;;;;;;4966798;28;20030;-90
2021/08/02 08:15:04;;;;;;;3.20;1.20;;;18.20;96.90;;;;;;4989772;28;20023;-90
2021/08/02 08:17:30;;;;;;;3.40;1.60;;;18.20;96.70;;;;;;4985816;28;20034;-90
2021/08/02 08:19:55;;;;;;;4.90;1.60;;;18.30;96.60;;;;;;4960403;28;20369;-89
2021/08/02 08:22:21;;;;;;;2.90;1.30;;;18.30;96.20;;;;;;4939731;28;20054;-90
2021/08/02 08:24:49;;;;;;;4.25;1.65;;;18.40;95.90;;;;;;4936008;28;20073;-90
2021/08/02 08:27:15;;;;;;;6.93;1.55;;;18.40;95.40;;;;;;4959988;28;20051;-89
2021/08/02 08:29:41;;;;;;;5.22;1.40;;;18.50;95.20;;;;;;4955236;28;20409;-89
2021/08/02 08:32:07;;;;;;;4.07;1.58;;;18.60;95.10;;;;;;4966566;28;20022;-90
2021/08/02 08:34:32;;;;;;;3.38;1.50;;;18.60;94.30;;;;;;4939197;28;20030;-90
2021/08/02 08:36:58;;;;;;;4.45;1.80;;;18.70;94.40;;;;;;4936525;29;20042;-90
2021/08/02 08:39:24;;;;;;;2.53;1.60;;;18.80;94.80;;;;;;4942442;29;20028;-90
2021/08/02 08:41:51;;;;;;;3.03;1.40;;;18.80;94.80;;;;;;4943582;28;20109;-90
2021/08/02 08:44:18;;;;;;;3.28;1.40;;;18.90;94.60;;;;;;4933716;28;20023;-90
2021/08/02 08:46:44;;;;;;;2.42;1.40;;;18.90;94.30;;;;;;4950758;28;20019;-89
2021/08/02 08:49:10;;;;;;;4.30;1.60;;;18.90;94.50;;;;;;4936774;28;20397;-90
2021/08/02 08:51:38;;;;;;;3.75;1.50;;;19.00;94.50;;;;;;4923763;28;20031;-90
2021/08/02 08:54:05;;;;;;;4.00;1.77;;;19.00;93.80;;;;;;4962362;28;20109;-90
2021/08/02 08:56:31;;;;;;;3.17;1.70;;;19.00;93.80;;;;;;4956597;28;20033;-90
2021/08/02 08:58:57;;;;;;;3.67;1.60;;;19.00;93.20;;;;;;4943077;28;20027;-90
2021/08/02 09:01:28;;;;;;;3.75;1.70;;;19.00;93.50;;;;;;4941763;28;20029;-90
2021/08/02 09:03:55;;;;;;;3.47;1.60;;;19.10;93.40;;;;;;4953364;28;20238;-90
2021/08/02 09:06:20;;;;;;;3.22;1.73;;;19.10;93.30;;;;;;4960170;28;20034;-90
2021/08/02 09:08:47;;;;;;;3.88;1.70;;;19.10;93.30;;;;;;4958780;28;20034;-90
2021/08/02 09:11:17;;;;;;;3.15;1.70;;;19.10;92.90;;;;;;4956038;28;20392;-90
2021/08/02 09:13:43;;;;;;;2.80;1.33;;;19.20;92.80;;;;;;4951309;28;20036;-90
2021/08/02 09:16:13;;;;;;;3.25;1.60;;;19.20;93.00;;;;;;4976760;28;20042;-90
2021/08/02 09:18:39;;;;;;;4.50;2.07;;;19.20;93.00;;;;;;4958739;28;20433;-90
2021/08/02 09:21:11;;;;;;;3.35;1.80;;;19.20;92.90;;;;;;4947284;28;1228103;-90
2021/08/02 09:23:51;;;;;;;3.70;1.90;;;19.20;92.70;;;;;;4944120;28;20027;-89
2021/08/02 09:26:28;;;;;;;4.38;1.73;;;19.30;91.70;;;;;;4949755;28;20107;-90
2021/08/02 09:28:54;;;;;;;2.83;1.58;;;19.30;92.30;;;;;;4955380;28;20026;-90
2021/08/02 09:31:34;;;;;;;4.20;1.95;;;19.30;92.20;;;;;;4965541;28;20053;-90
2021/08/02 09:34:02;;;;;;;4.28;1.90;;;19.30;92.10;;;;;;4982564;28;20058;-90
2021/08/02 09:36:54;;;;;;;4.72;1.80;;;19.30;91.70;;;;;;4959545;28;20019;-90
2021/08/02 09:39:20;;;;;;;4.30;2.10;;;19.30;91.20;;;;;;4977306;28;20543;-89
2021/08/02 09:41:46;;;;;;;2.90;1.85;;;19.30;91.40;;;;;;4957524;28;20030;-90
2021/08/02 09:44:21;;;;;;;5.13;1.80;;;19.30;91.70;;;;;;4978575;28;20026;-90
2021/08/02 09:46:58;;;;;;;2.88;1.67;;;19.40;91.70;;;;;;4959212;28;20031;-90
2021/08/02 09:49:25;;;;;;;2.95;1.95;;;19.40;90.90;;;;;;4959572;28;20127;-89
2021/08/02 09:51:52;;;;;;;3.53;1.98;;;19.50;92.00;;;;;;4943178;28;20481;-90
2021/08/02 09:54:26;;;;;;;3.97;1.80;;;19.50;91.80;;;;;;4959191;28;20027;-90
2021/08/02 09:56:52;;;;;;;3.95;1.63;;;19.60;92.10;;;;;;4959337;28;20357;-89
2021/08/02 09:59:19;;;;;;;2.95;1.70;;;19.60;91.30;;;;;;4939235;28;20193;-88
2021/08/02 10:01:54;;;;;;;5.53;1.70;;;19.70;91.30;;;;;;4942156;28;20034;-89
2021/08/02 10:04:21;;;;;;;3.75;1.50;;;19.70;90.60;;;;;;4944012;28;20041;-89
2021/08/02 10:06:47;;;;;;;1.63;1.40;;;19.80;91.30;;;;;;4936168;28;20488;-90
2021/08/02 10:09:14;;;;;;;2.95;1.40;;;19.80;91.70;;;;;;4951936;28;20097;-89
2021/08/02 10:11:43;;;;;;;3.00;1.25;;;19.90;92.00;;;;;;4942277;28;20031;-90
2021/08/02 10:14:12;;;;;;;4.22;1.60;;;19.90;91.70;;;;;;4958842;28;20027;-89
2021/08/02 10:16:41;;;;;;;4.75;1.40;;;20.00;91.70;;;;;;4959829;28;20027;-89
2021/08/02 10:19:08;;;;;;;4.00;1.50;;;20.10;90.60;;;;;;4958710;28;20384;-90
2021/08/02 10:21:41;;;;;;;1.38;1.05;;;20.10;91.20;;;;;;5010682;23;20480;-85
2021/08/02 10:24:09;;;;;;;5.05;1.58;;;20.20;91.00;;;;;;4997163;28;20029;-84
2021/08/02 10:26:35;;;;;;;3.83;1.60;;;20.20;90.90;;;;;;4995611;28;20030;-84
2021/08/02 10:29:04;;;;;;;4.40;1.50;;;20.20;90.40;;;;;;4996502;28;20038;-85
2021/08/02 10:31:45;;;;;;;4.35;1.65;;;20.30;90.40;;;;;;4996101;28;20076;-84
2021/08/02 10:34:16;;;;;;;5.20;1.65;;;20.30;90.00;;;;;;4996745;28;20018;-85
2021/08/02 10:36:42;;;;;;;;;;;20.30;90.10;;;;;;4996466;28;20018;-86
2021/08/02 10:39:19;;;;;;;3.70;1.17;;;20.30;90.30;;;;;;4995494;28;19996;-86
2021/08/02 10:41:45;;;;;;;2.97;1.25;;;20.30;91.10;;;;;;4995926;28;20471;-86
2021/08/02 10:44:16;;;;;;;4.53;1.48;;;20.40;91.10;;;;;;4979858;28;20053;-85
2021/08/02 10:46:41;;;;;;;;;;;20.30;91.40;;;;;;4980892;28;20030;-85
2021/08/02 10:49:09;;;;;;;4.30;1.25;;;20.40;91.30;;;;;;4996572;28;19909;-85
2021/08/02 10:51:45;;;;;;;3.67;1.45;;;20.40;91.70;;;;;;4980658;28;20026;-85
2021/08/02 10:54:11;;;;;;;3.92;1.35;;;20.40;91.50;;;;;;5013513;28;20063;-85
2021/08/02 10:56:37;;;;;;;3.92;1.20;;;20.50;91.50;;;;;;4980463;28;20022;-85
2021/08/02 10:59:03;;;;;;;3.83;1.20;;;20.50;91.70;;;;;;4996170;28;20463;-84
2021/08/02 11:01:29;;;;;;;3.53;1.33;;;20.50;91.70;;;;;;5013797;28;20033;-84
2021/08/02 11:04:09;;;;;;;5.90;1.25;;;20.60;92.00;;;;;;4980038;28;20030;-85
2021/08/02 11:06:35;;;;;;;4.03;1.27;;;20.60;92.10;;;;;;4994994;28;20305;-84
2021/08/02 11:09:01;;;;;;;4.15;1.10;;;20.60;90.60;;;;;;4994736;28;20105;-85
2021/08/02 11:11:34;;;;;;;3.33;1.27;;;20.60;89.80;;;;;;4978514;28;20432;-85
2021/08/02 11:14:19;;;;;;;2.53;1.10;;;20.60;90.50;;;;;;4996027;28;20422;-85
2021/08/02 11:16:50;;;;;;;3.42;1.20;;;20.60;90.20;;;;;;4979729;28;20380;-85
2021/08/02 11:19:23;;;;;;;;;;;20.70;90.70;;;;;;4979767;28;20048;-85
2021/08/02 11:21:58;;;;;;;1.88;1.00;;;20.70;90.40;;;;;;4995506;28;19971;-85
2021/08/02 11:24:24;;;;;;;3.53;1.38;;;20.70;90.90;;;;;;5013480;28;20025;-85
2021/08/02 11:26:55;;;;;;;2.42;1.20;;;20.80;91.40;;;;;;4975498;28;20365;-85
2021/08/02 11:29:31;;;;;;;2.67;1.10;;;20.90;91.70;;;;;;5004531;28;20029;-85
2021/08/02 11:32:05;;;;;;;3.50;1.27;;;21.00;91.50;;;;;;4995508;28;20026;-85
2021/08/02 11:34:31;;;;;;;3.03;1.23;;;21.10;91.20;;;;;;4994818;28;20084;-84
2021/08/02 11:37:07;;;;;;;2.05;1.30;;;21.10;91.50;;;;;;4979493;28;20483;-84
2021/08/02 11:39:38;;;;;;;2.88;1.20;;;21.20;91.20;;;;;;4995216;28;20018;-85
2021/08/02 11:42:07;;;;;;;4.55;1.40;;;21.30;90.90;;;;;;5012442;28;20034;-84
2021/08/02 11:44:34;;;;;;;2.47;1.08;;;21.40;90.20;;;;;;4995303;28;20022;-85
2021/08/02 11:47:01;;;;;;;4.65;1.58;;;21.40;90.70;;;;;;4978458;28;20377;-85
2021/08/02 11:49:27;;;;;;;2.38;1.20;;;21.50;90.90;;;;;;4978318;28;20034;-86
2021/08/02 11:51:55;;;;;;;2.50;1.20;;;21.50;90.50;;;;;;4978364;28;20038;-85
2021/08/02 11:54:23;;;;;;;3.20;1.30;;;21.60;90.40;;;;;;4976001;28;20365;-84
2021/08/02 11:56:49;;;;;;;2.63;1.08;;;21.60;89.20;;;;;;5007233;28;20073;-84
2021/08/02 11:59:26;;;;;;;3.53;1.30;;;21.60;88.30;;;;;;4979842;28;20500;-84
2021/08/02 12:01:54;;;;;;;2.63;1.10;;;21.60;86.80;;;;;;4995141;28;20021;-84
2021/08/02 12:04:21;;;;;;;3.28;1.30;;;21.60;88.00;;;;;;4990665;28;20029;-85
2021/08/02 12:06:58;;;;;;;4.85;1.50;;;21.60;87.80;;;;;;4969750;28;20404;-85
2021/08/02 12:09:39;;;;;;;7.47;1.30;;;21.60;82.00;;;;;;4971327;28;20438;-85
2021/08/02 12:12:07;;;;;;;3.10;1.00;;;21.60;83.70;;;;;;4977010;28;20417;-86
2021/08/02 12:14:34;;;;;;;2.63;1.40;;;21.60;87.00;;;;;;4975588;28;20080;-85
2021/08/02 12:17:06;;;;;;;6.25;1.70;;;21.60;85.50;;;;;;4991250;28;20030;-87
2021/08/02 12:19:46;;;;;;;4.55;1.52;;;21.60;84.90;;;;;;5002547;28;20475;-87
2021/08/02 12:22:12;;;;;;;3.33;1.30;;;21.70;76.90;;;;;;4992600;28;20600;-85
2021/08/02 12:24:56;;;;;;;3.67;1.00;;;21.70;82.80;;;;;;4977462;28;20018;-87
2021/08/02 12:27:24;;;;;;;3.70;1.20;;;21.60;73.10;;;;;;4996164;28;20041;-86
2021/08/02 12:30:04;;;;;;;4.03;1.13;;;21.60;78.70;;;;;;4995384;28;20030;-86
2021/08/02 12:32:34;;;;;;;2.28;0.90;;;21.60;77.90;;;;;;5001706;28;20058;-85
2021/08/02 12:35:00;;;;;;;4.23;1.13;;;21.60;78.80;;;;;;4998796;28;20022;-86
2021/08/02 12:37:25;;;;;;;2.95;1.35;;;21.60;78.70;;;;;;4962889;28;20301;-85
2021/08/02 12:39:54;;;;;;;4.03;1.27;;;21.50;79.30;;;;;;4982124;28;20022;-86
2021/08/02 12:42:24;;;;;;;2.75;1.30;;;21.60;80.10;;;;;;4998259;28;20084;-86
2021/08/02 12:44:49;;;;;;;3.97;1.20;;;21.70;78.00;;;;;;5015856;28;20022;-86
2021/08/02 12:47:15;;;;;;;2.85;1.17;;;21.70;76.20;;;;;;4962591;28;20030;-85
2021/08/02 12:49:40;;;;;;;3.53;1.35;;;21.70;75.90;;;;;;4981407;28;20049;-86
2021/08/02 12:52:06;;;;;;;3.65;1.33;;;21.70;75.30;;;;;;4965809;28;20037;-85
2021/08/02 12:54:32;;;;;;;3.20;1.17;;;21.60;75.00;;;;;;4965900;28;20033;-86
2021/08/02 12:56:57;;;;;;;2.47;1.17;;;21.60;74.70;;;;;;4981545;28;20180;-87
2021/08/02 12:59:23;;;;;;;2.08;0.93;;;21.60;77.10;;;;;;4981129;28;20021;-86
2021/08/02 13:01:49;;;;;;;3.85;1.35;;;21.60;76.20;;;;;;4965177;28;20045;-85
2021/08/02 13:04:14;;;;;;;2.80;1.08;;;21.60;75.80;;;;;;4981506;28;20104;-86
2021/08/02 13:06:40;;;;;;;2.70;1.17;;;21.70;77.70;;;;;;4997656;28;20471;-86
2021/08/02 13:09:06;;;;;;;2.65;1.20;;;21.70;78.80;;;;;;4981369;28;20030;-86